PHMK METAR and TAF | Updated Today

PHMK METAR

Molokai Airport

Observation time: 6 min. ago

PHMK 010854Z AUTO 04005KT 10SM FEW033 25/21 A3001 RMK AO2 SLP162 T02500206 50004 TSNO

Need help? Read our tutorial on how to read METARs or read the parsed version below.

Molokai Airport (PHMK) METAR

  • Weather conditions on Sat, 01 Oct 2022 08:54:00 +0000 (6 min. ago):
  • Present conditions: Dry
  • Clouds: A few at 1006 meters
  • Visibility: 16093 meters
  • Wind: 40 degrees at 5 knots
  • Temperature: 25 celsius
  • Dew point: 21 celsius
  • Pressure: 30.01 inHg
  • Remarks: AO2 SLP162 T02500206 50004 TSNO


Useful to know...

PHMK TAF

Molokai Airport

PHMK 010520Z 0106/0206 04008KT P6SM SKC FM012000 04012G18KT P6SM BKN040
Observation time: 3:40 hr. ago
Need help? Read our tutorial on how to read TAFs or read the parsed version below.

Parsed version of TAF for Molokai Airport (PHMK)

  • From 01 October at 06:00 UTC, to day 02 of the month at 06:00 UTC
  • Clouds: No significant changes expected
  • Wind: 40 degrees at 8
  • From day 1 of the month at 20:00 UTC
  • Clouds: Broken sky at 1219 meters
  • Wind: 40 degrees at 12